createdAt,value
2018-02-19T00:00:34.734Z,39.22
2018-02-19T00:03:03.053Z,36.58
2018-02-19T00:05:31.473Z,40.00
2018-02-19T00:08:00.537Z,39.78
2018-02-19T00:10:28.938Z,38.45
2018-02-19T00:12:57.284Z,40.65
2018-02-19T00:15:25.630Z,41.83
2018-02-19T00:17:53.958Z,43.50
2018-02-19T00:20:22.295Z,50.20
2018-02-19T00:25:48.482Z,46.25
2018-02-19T00:28:17.567Z,40.83
2018-02-19T00:30:45.927Z,41.50
2018-02-19T00:33:14.255Z,46.42
2018-02-19T00:35:42.663Z,46.88
2018-02-19T00:38:11.756Z,46.33
2018-02-19T00:40:40.079Z,49.15
2018-02-19T00:43:08.494Z,51.53
2018-02-19T00:45:36.866Z,56.17
2018-02-19T00:48:05.200Z,55.47
2018-02-19T00:50:33.540Z,53.90
2018-02-19T00:53:01.874Z,48.92
2018-02-19T00:55:31.044Z,50.28
2018-02-19T00:57:59.405Z,55.17
2018-02-19T01:00:27.757Z,54.08
2018-02-19T01:02:56.103Z,56.75
2018-02-19T01:05:25.205Z,55.88
2018-02-19T01:07:54.319Z,59.28
2018-02-19T01:10:22.627Z,54.60
2018-02-19T01:12:50.977Z,54.15
2018-02-19T01:15:19.310Z,58.22
2018-02-19T01:17:47.654Z,57.10
2018-02-19T01:20:16.039Z,51.08
2018-02-19T01:22:44.384Z,54.50
2018-02-19T01:25:12.713Z,53.47
2018-02-19T01:27:41.049Z,53.15
2018-02-19T01:30:09.383Z,53.58
2018-02-19T01:32:37.851Z,52.65
2018-02-19T01:35:06.186Z,56.00
2018-02-19T01:37:34.558Z,53.33
2018-02-19T01:40:02.883Z,52.95
2018-02-19T01:42:31.219Z,49.55
2018-02-19T01:44:59.571Z,51.95
2018-02-19T01:47:27.906Z,56.60
2018-02-19T01:50:14.052Z,54.30
2018-02-19T01:52:42.377Z,55.20
2018-02-19T01:55:10.716Z,52.35
2018-02-19T01:57:39.061Z,53.67
2018-02-19T02:00:07.410Z,53.60
2018-02-19T02:02:35.757Z,49.33
2018-02-19T02:05:04.108Z,51.40
2018-02-19T02:07:33.232Z,45.50
2018-02-19T02:10:01.558Z,44.38
2018-02-19T02:12:29.899Z,45.17
2018-02-19T02:14:58.246Z,51.58
2018-02-19T02:17:26.589Z,50.95
2018-02-19T02:19:54.928Z,47.92
2018-02-19T02:22:23.286Z,47.47
2018-02-19T02:24:51.613Z,50.00
2018-02-19T02:27:20.021Z,50.28
2018-02-19T02:29:49.122Z,50.85
2018-02-19T02:32:17.475Z,56.37
2018-02-19T02:34:45.827Z,53.70
2018-02-19T02:37:14.251Z,53.78
2018-02-19T02:39:43.318Z,53.85
2018-02-19T02:42:11.661Z,58.38
2018-02-19T02:44:40.060Z,57.70
2018-02-19T02:47:08.420Z,56.25
2018-02-19T02:49:36.812Z,54.22
2018-02-19T02:52:05.156Z,54.05
2018-02-19T02:54:33.475Z,55.00
2018-02-19T02:57:01.836Z,60.10
2018-02-19T02:59:30.204Z,67.40
2018-02-19T03:01:58.540Z,70.53
2018-02-19T03:04:26.866Z,63.83
2018-02-19T03:06:55.230Z,58.50
2018-02-19T03:09:23.569Z,63.60
2018-02-19T03:11:52.695Z,56.97
2018-02-19T03:14:21.042Z,54.80
2018-02-19T03:16:50.159Z,55.28
2018-02-19T03:19:18.740Z,58.20
2018-02-19T03:21:47.919Z,55.55
2018-02-19T03:24:17.023Z,57.08
2018-02-19T03:26:46.097Z,56.05
2018-02-19T03:29:14.493Z,56.13
2018-02-19T03:31:43.599Z,58.42
2018-02-19T03:34:11.972Z,61.58
2018-02-19T03:36:41.071Z,56.15
2018-02-19T03:39:10.199Z,56.03
2018-02-19T03:41:38.538Z,58.67
2018-02-19T03:44:07.646Z,52.80
2018-02-19T03:46:35.982Z,50.45
2018-02-19T03:49:04.307Z,53.85
2018-02-19T03:51:32.645Z,51.67
2018-02-19T03:54:01.052Z,52.55
2018-02-19T03:56:29.390Z,53.95
2018-02-19T03:58:57.783Z,53.40
2018-02-19T04:01:26.134Z,56.80
2018-02-19T04:03:54.471Z,54.38
2018-02-19T04:06:22.830Z,59.05
2018-02-19T04:08:51.927Z,54.72
2018-02-19T04:11:21.041Z,56.05
2018-02-19T04:13:49.443Z,56.40
2018-02-19T04:16:17.814Z,60.97
2018-02-19T04:18:46.220Z,59.03
2018-02-19T04:21:14.574Z,58.15
2018-02-19T04:23:42.907Z,54.60
2018-02-19T04:26:12.093Z,57.45
2018-02-19T04:28:40.442Z,52.17
2018-02-19T04:31:08.776Z,48.72
2018-02-19T04:33:37.103Z,48.10
2018-02-19T04:36:05.467Z,46.97
2018-02-19T04:38:33.809Z,46.97
2018-02-19T04:41:02.149Z,48.03
2018-02-19T04:43:30.485Z,45.92
2018-02-19T04:46:04.725Z,45.47
2018-02-19T04:48:35.438Z,47.15
2018-02-19T04:51:03.783Z,47.28
2018-02-19T04:53:32.915Z,46.58
2018-02-19T04:56:01.242Z,44.15
2018-02-19T04:58:30.373Z,45.40
2018-02-19T05:00:58.690Z,43.90
2018-02-19T05:03:27.065Z,44.30
2018-02-19T05:05:55.387Z,43.13
2018-02-19T05:08:23.735Z,42.45
2018-02-19T05:10:52.063Z,44.72
2018-02-19T05:13:20.449Z,49.35
2018-02-19T05:15:48.810Z,44.53
2018-02-19T05:18:17.232Z,48.50
2018-02-19T05:20:45.568Z,46.00
2018-02-19T05:23:13.970Z,48.55
2018-02-19T05:25:42.388Z,53.45
2018-02-19T05:28:10.838Z,53.08
2018-02-19T05:30:39.271Z,48.30
2018-02-19T05:33:08.495Z,50.72
2018-02-19T05:35:36.958Z,50.03
2018-02-19T05:38:05.363Z,51.28
2018-02-19T05:40:33.794Z,49.95
2018-02-19T05:43:02.166Z,53.80
2018-02-19T05:45:31.406Z,49.35
2018-02-19T05:47:59.810Z,53.30
2018-02-19T05:50:28.192Z,51.15
2018-02-19T05:52:56.619Z,50.92
2018-02-19T05:55:25.826Z,51.10
2018-02-19T05:57:54.250Z,50.67
2018-02-19T06:00:22.729Z,49.35
2018-02-19T06:02:51.202Z,52.03
2018-02-19T06:05:19.658Z,49.70
2018-02-19T06:07:48.114Z,47.88
2018-02-19T06:10:17.339Z,47.38
2018-02-19T06:12:45.787Z,48.67
2018-02-19T06:15:14.977Z,45.05
2018-02-19T06:17:43.366Z,50.25
2018-02-19T06:20:12.581Z,44.90
2018-02-19T06:22:41.025Z,45.10
2018-02-19T06:25:10.256Z,43.00
2018-02-19T06:27:38.591Z,40.53
2018-02-19T06:30:07.058Z,43.13
2018-02-19T06:32:35.543Z,39.83
2018-02-19T06:35:03.964Z,43.50
2018-02-19T06:37:33.192Z,40.65
2018-02-19T06:40:01.593Z,42.20
2018-02-19T06:42:29.865Z,41.70
2018-02-19T06:44:58.169Z,34.28
2018-02-19T06:47:26.423Z,34.45
2018-02-19T06:49:54.744Z,33.10
2018-02-19T06:52:23.819Z,27.60
2018-02-19T06:54:52.109Z,25.42
2018-02-19T06:57:20.448Z,23.65
2018-02-19T06:59:48.763Z,21.33
2018-02-19T07:02:17.826Z,21.42
2018-02-19T07:04:46.116Z,19.58
2018-02-19T07:07:14.449Z,20.48
2018-02-19T07:09:42.792Z,19.73
2018-02-19T07:12:11.045Z,19.75
2018-02-19T07:14:39.327Z,19.15
2018-02-19T07:17:07.636Z,20.95
2018-02-19T07:19:35.963Z,19.67
2018-02-19T07:22:04.230Z,19.42
2018-02-19T07:27:07.136Z,20.27
2018-02-19T07:29:35.425Z,17.90
2018-02-19T07:32:03.710Z,19.02
2018-02-19T07:34:32.009Z,17.75
2018-02-19T07:37:00.312Z,18.98
2018-02-19T07:39:28.622Z,16.92
2018-02-19T07:41:56.933Z,18.85
2018-02-19T07:44:25.967Z,19.90
2018-02-19T07:46:54.228Z,17.75
2018-02-19T07:49:22.506Z,20.00
2018-02-19T07:51:50.791Z,16.80
2018-02-19T07:54:19.146Z,18.33
2018-02-19T07:56:47.381Z,17.83
2018-02-19T07:59:15.661Z,16.42
2018-02-19T08:01:43.945Z,17.58
2018-02-19T08:04:12.243Z,15.75
2018-02-19T08:06:41.316Z,17.95
2018-02-19T08:09:09.615Z,18.55
2018-02-19T08:11:37.908Z,16.08
2018-02-19T08:14:06.207Z,15.88
2018-02-19T08:16:34.512Z,17.35
2018-02-19T08:19:02.862Z,14.90
2018-02-19T08:21:31.200Z,14.38
2018-02-19T08:24:00.265Z,13.85
2018-02-19T08:26:28.569Z,15.32
2018-02-19T08:28:56.888Z,15.35
2018-02-19T08:31:25.185Z,12.57
2018-02-19T08:33:53.492Z,13.02
2018-02-19T08:36:22.557Z,14.50
2018-02-19T08:38:50.846Z,13.82
2018-02-19T08:41:19.129Z,16.70
2018-02-19T08:43:47.413Z,16.90
2018-02-19T08:46:16.448Z,16.40
2018-02-19T08:48:44.743Z,14.80
2018-02-19T08:51:13.802Z,15.38
2018-02-19T08:53:42.095Z,15.23
2018-02-19T08:56:10.387Z,11.65
2018-02-19T08:58:38.663Z,12.73
2018-02-19T09:01:06.973Z,14.10
2018-02-19T09:03:35.259Z,12.02
2018-02-19T09:06:04.344Z,14.10
2018-02-19T09:08:33.414Z,12.65
2018-02-19T09:11:01.813Z,13.07
2018-02-19T09:13:30.873Z,13.18
2018-02-19T09:15:59.966Z,12.50
2018-02-19T09:18:28.295Z,13.15
2018-02-19T09:20:56.685Z,13.82
2018-02-19T09:23:25.010Z,12.20
2018-02-19T09:25:53.394Z,13.15
2018-02-19T09:28:21.787Z,13.68
2018-02-19T09:30:50.142Z,13.57
2018-02-19T09:33:18.489Z,14.18
2018-02-19T09:35:46.840Z,14.23
2018-02-19T09:38:15.178Z,13.70
2018-02-19T09:40:43.516Z,12.45
2018-02-19T09:43:11.829Z,11.80
2018-02-19T09:45:40.102Z,15.00
2018-02-19T09:48:08.393Z,13.35
2018-02-19T09:50:36.687Z,13.85
2018-02-19T09:53:05.819Z,11.12
2018-02-19T09:55:34.140Z,11.18
2018-02-19T09:58:02.448Z,11.20
2018-02-19T10:00:31.550Z,11.45
2018-02-19T10:02:59.919Z,11.68
2018-02-19T10:05:29.025Z,14.45
2018-02-19T10:07:57.328Z,12.27
2018-02-19T10:10:25.788Z,11.30
2018-02-19T10:12:54.142Z,11.55
2018-02-19T10:15:23.235Z,11.90
2018-02-19T10:17:52.352Z,10.23
2018-02-19T10:20:20.705Z,11.30
2018-02-19T10:22:49.871Z,12.52
2018-02-19T10:25:18.202Z,12.63
2018-02-19T10:27:46.535Z,13.93
2018-02-19T10:30:14.922Z,13.80
2018-02-19T10:32:43.242Z,12.40
2018-02-19T10:35:11.581Z,13.20
2018-02-19T10:37:39.895Z,17.93
2018-02-19T10:40:08.214Z,14.55
2018-02-19T10:42:36.529Z,10.65
2018-02-19T10:45:05.600Z,11.18
2018-02-19T10:47:33.935Z,8.10
2018-02-19T10:50:02.305Z,12.40
2018-02-19T10:52:30.678Z,12.73
2018-02-19T10:54:59.040Z,14.20
2018-02-19T10:57:28.133Z,12.98
2018-02-19T10:59:57.218Z,11.73
2018-02-19T11:02:26.299Z,12.20
2018-02-19T11:04:54.659Z,11.30
2018-02-19T11:07:22.928Z,11.90
2018-02-19T11:09:51.263Z,11.47
2018-02-19T11:12:20.363Z,12.70
2018-02-19T11:14:48.682Z,13.67
2018-02-19T11:17:17.008Z,12.07
2018-02-19T11:19:46.076Z,11.43
2018-02-19T11:22:14.385Z,10.47
2018-02-19T11:24:42.696Z,12.50
2018-02-19T11:27:11.010Z,13.37
2018-02-19T11:29:39.298Z,13.00
2018-02-19T11:32:08.395Z,13.40
2018-02-19T11:34:37.483Z,26.57
2018-02-19T11:37:05.868Z,13.10
2018-02-19T11:39:34.929Z,14.10
2018-02-19T11:42:03.283Z,14.47
2018-02-19T11:44:31.553Z,14.03
2018-02-19T11:46:59.843Z,14.53
2018-02-19T11:49:28.120Z,14.00
2018-02-19T11:51:56.429Z,15.70
2018-02-19T11:54:24.726Z,12.90
2018-02-19T11:56:53.823Z,16.07
2018-02-19T11:59:22.142Z,12.70
2018-02-19T12:01:50.490Z,14.20
2018-02-19T12:04:18.798Z,15.20
2018-02-19T12:06:47.082Z,14.13
2018-02-19T12:09:15.426Z,14.30
2018-02-19T12:11:43.742Z,13.53
2018-02-19T12:14:12.049Z,12.77
2018-02-19T12:16:40.328Z,13.30
2018-02-19T12:19:09.384Z,13.00
2018-02-19T12:21:37.679Z,16.73
2018-02-19T12:24:05.959Z,16.37
2018-02-19T12:26:34.290Z,16.57
2018-02-19T12:29:02.593Z,15.30
2018-02-19T12:31:30.889Z,15.67
2018-02-19T12:33:59.164Z,14.57
2018-02-19T12:36:27.465Z,15.20
2018-02-19T12:38:56.522Z,16.37
2018-02-19T12:41:24.812Z,14.90
2018-02-19T12:43:53.134Z,15.20
2018-02-19T12:46:21.430Z,13.67
2018-02-19T12:48:49.730Z,14.20
2018-02-19T12:51:18.016Z,14.20
2018-02-19T12:53:46.314Z,13.67
2018-02-19T12:56:15.381Z,16.27
2018-02-19T12:58:43.695Z,13.70
2018-02-19T13:01:12.774Z,16.27
2018-02-19T13:03:41.850Z,12.70
2018-02-19T13:06:10.215Z,15.50
2018-02-19T13:08:39.320Z,13.00
2018-02-19T13:11:07.629Z,14.00
2018-02-19T13:13:36.697Z,13.90
2018-02-19T13:16:04.986Z,14.70
2018-02-19T13:18:34.060Z,15.20
2018-02-19T13:21:02.363Z,14.73
2018-02-19T13:23:31.442Z,13.67
2018-02-19T13:25:59.748Z,15.37
2018-02-19T13:28:28.791Z,14.73
2018-02-19T13:30:57.125Z,14.80
2018-02-19T13:33:26.149Z,13.17
2018-02-19T13:35:54.479Z,14.73
2018-02-19T13:38:23.560Z,16.07
2018-02-19T13:40:51.839Z,13.60
2018-02-19T13:43:20.117Z,14.00
2018-02-19T13:45:48.394Z,13.40
2018-02-19T13:48:16.689Z,13.67
2018-02-19T13:50:44.990Z,16.83
2018-02-19T13:53:13.275Z,13.57
2018-02-19T13:55:41.563Z,14.20
2018-02-19T13:58:09.868Z,14.50
2018-02-19T14:00:38.180Z,13.70
2018-02-19T14:03:06.468Z,14.97
2018-02-19T14:05:34.815Z,12.90
2018-02-19T14:08:03.930Z,14.47
2018-02-19T14:10:32.254Z,13.97
2018-02-19T14:13:00.562Z,13.23
2018-02-19T14:15:29.648Z,16.57
2018-02-19T14:17:57.949Z,16.30
2018-02-19T14:20:26.255Z,15.50
2018-02-19T14:22:54.520Z,13.90
2018-02-19T14:25:22.842Z,14.10
2018-02-19T14:27:51.150Z,13.83
2018-02-19T14:30:19.435Z,14.32
2018-02-19T14:32:47.740Z,12.97
2018-02-19T14:35:16.015Z,13.30
2018-02-19T14:37:44.290Z,16.00
2018-02-19T14:40:12.565Z,12.80
2018-02-19T14:42:40.834Z,13.13
2018-02-19T14:45:09.094Z,13.03
2018-02-19T14:47:37.372Z,12.23
2018-02-19T14:50:05.659Z,12.70
2018-02-19T14:52:33.947Z,13.60
2018-02-19T14:55:02.990Z,14.02
2018-02-19T14:57:37.289Z,14.87
2018-02-19T15:00:05.600Z,14.53
2018-02-19T15:02:33.924Z,14.25
2018-02-19T15:05:02.216Z,15.90
2018-02-19T15:07:30.481Z,14.15
2018-02-19T15:09:58.767Z,13.40
2018-02-19T15:12:27.065Z,14.33
2018-02-19T15:14:56.106Z,14.00
2018-02-19T15:17:24.362Z,15.90
2018-02-19T15:19:52.665Z,13.97
2018-02-19T15:22:21.856Z,15.10
2018-02-19T15:24:50.127Z,14.45
2018-02-19T15:27:18.433Z,15.40
2018-02-19T15:29:46.744Z,14.47
2018-02-19T15:32:15.776Z,15.05
2018-02-19T15:34:44.071Z,13.80
2018-02-19T15:37:13.118Z,14.57
2018-02-19T15:39:41.399Z,14.60
2018-02-19T15:42:09.681Z,15.73
2018-02-19T15:44:37.965Z,14.43
2018-02-19T15:47:06.239Z,15.35
2018-02-19T15:49:34.521Z,14.95
2018-02-19T15:52:02.802Z,14.98
2018-02-19T15:54:31.132Z,15.20
2018-02-19T15:57:00.188Z,16.12
2018-02-19T15:59:28.532Z,16.83
2018-02-19T16:01:56.825Z,16.67
2018-02-19T16:04:25.089Z,14.32
2018-02-19T16:06:53.380Z,16.17
2018-02-19T16:09:21.739Z,15.80
2018-02-19T16:11:50.046Z,16.23
2018-02-19T16:14:18.351Z,15.50
2018-02-19T16:16:46.624Z,17.02
2018-02-19T16:19:15.692Z,16.15
2018-02-19T16:21:43.989Z,15.95
2018-02-19T16:24:12.256Z,16.33
2018-02-19T16:26:40.537Z,16.08
2018-02-19T16:29:08.837Z,15.90
2018-02-19T16:31:37.887Z,17.50
2018-02-19T16:34:06.184Z,14.23
2018-02-19T16:36:34.481Z,14.77
2018-02-19T16:39:03.534Z,18.45
2018-02-19T16:41:31.838Z,14.32
2018-02-19T16:44:00.129Z,16.23
2018-02-19T16:46:29.182Z,16.30
2018-02-19T16:48:57.481Z,15.23
2018-02-19T16:51:25.792Z,15.88
2018-02-19T16:53:54.079Z,18.15
2018-02-19T16:56:22.413Z,17.20
2018-02-19T16:58:51.479Z,17.30
2018-02-19T17:01:19.787Z,16.40
2018-02-19T17:03:48.129Z,16.73
2018-02-19T17:06:16.437Z,15.60
2018-02-19T17:08:44.769Z,16.05
2018-02-19T17:11:13.119Z,15.88
2018-02-19T17:13:42.217Z,16.10
2018-02-19T17:16:10.559Z,16.20
2018-02-19T17:18:38.895Z,15.60
2018-02-19T17:21:07.185Z,13.95
2018-02-19T17:23:35.613Z,14.60
2018-02-19T17:26:03.910Z,14.75
2018-02-19T17:28:32.229Z,14.85
2018-02-19T17:31:00.546Z,15.82
2018-02-19T17:33:29.654Z,14.32
2018-02-19T17:35:58.730Z,12.25
2018-02-19T17:38:27.880Z,15.23
2018-02-19T17:40:56.912Z,14.13
2018-02-19T17:43:25.212Z,15.67
2018-02-19T17:45:54.270Z,15.40
2018-02-19T17:48:22.553Z,14.43
2018-02-19T17:50:50.861Z,14.50
2018-02-19T17:53:19.921Z,15.32
2018-02-19T17:55:48.226Z,15.20
2018-02-19T17:58:17.300Z,17.10
2018-02-19T18:00:45.604Z,16.37
2018-02-19T18:03:13.964Z,15.68
2018-02-19T18:05:43.022Z,15.35
2018-02-19T18:08:11.331Z,15.73
2018-02-19T18:10:40.409Z,14.35
2018-02-19T18:13:08.725Z,16.33
2018-02-19T18:15:37.777Z,15.93
2018-02-19T18:18:06.114Z,16.33
2018-02-19T18:20:34.430Z,16.00
2018-02-19T18:23:02.725Z,16.65
2018-02-19T18:25:31.793Z,18.62
2018-02-19T18:28:00.082Z,12.85
2018-02-19T18:30:28.364Z,14.30
2018-02-19T18:32:56.682Z,14.75
2018-02-19T18:35:24.985Z,15.38
2018-02-19T18:37:53.274Z,12.70
2018-02-19T18:40:21.568Z,16.10
2018-02-19T18:42:49.856Z,16.52
2018-02-19T18:45:18.195Z,17.17
2018-02-19T18:47:46.486Z,16.60
2018-02-19T18:50:14.806Z,16.67
2018-02-19T18:52:43.856Z,14.90
2018-02-19T18:55:12.182Z,13.75
2018-02-19T18:57:40.483Z,18.00
2018-02-19T19:00:08.780Z,16.42
2018-02-19T19:02:37.085Z,16.52
2018-02-19T19:05:05.382Z,17.15
2018-02-19T19:07:52.135Z,17.45
2018-02-19T19:10:38.416Z,18.70
2018-02-19T19:13:06.782Z,16.75
2018-02-19T19:15:35.073Z,18.33
2018-02-19T19:18:03.391Z,15.80
2018-02-19T19:20:31.708Z,16.15
2018-02-19T19:23:00.052Z,15.35
2018-02-19T19:25:28.358Z,17.60
2018-02-19T19:27:56.674Z,17.48
2018-02-19T19:30:24.965Z,17.25
2018-02-19T19:32:54.038Z,15.68
2018-02-19T19:35:22.356Z,17.77
2018-02-19T19:37:51.443Z,16.95
2018-02-19T19:40:19.723Z,15.02
2018-02-19T19:42:48.023Z,16.37
2018-02-19T19:45:16.316Z,17.80
2018-02-19T19:47:44.642Z,15.30
2018-02-19T19:50:12.943Z,15.27
2018-02-19T19:52:42.037Z,15.73
2018-02-19T19:55:11.107Z,17.85
2018-02-19T19:57:39.412Z,16.17
2018-02-19T20:00:08.476Z,16.70
2018-02-19T20:02:36.767Z,17.12
2018-02-19T20:05:05.104Z,17.27
2018-02-19T20:07:33.419Z,17.23
2018-02-19T20:10:01.794Z,17.77
2018-02-19T20:12:30.041Z,17.48
2018-02-19T20:14:58.349Z,18.00
2018-02-19T20:17:26.626Z,19.35
2018-02-19T20:19:54.883Z,17.20
2018-02-19T20:22:23.158Z,18.25
2018-02-19T20:24:51.412Z,17.95
2018-02-19T20:27:19.665Z,18.00
2018-02-19T20:29:47.935Z,16.73
2018-02-19T20:32:16.186Z,17.83
2018-02-19T20:34:44.444Z,17.77
2018-02-19T20:37:12.698Z,18.12
2018-02-19T20:39:40.978Z,17.08
2018-02-19T20:42:09.221Z,16.40
2018-02-19T20:44:37.494Z,17.70
2018-02-19T20:47:05.756Z,16.35
2018-02-19T20:49:34.779Z,17.62
2018-02-19T20:52:03.031Z,17.85
2018-02-19T20:54:31.286Z,15.35
2018-02-19T20:57:00.314Z,17.62
2018-02-19T20:59:28.578Z,15.57
2018-02-19T21:01:56.846Z,17.77
2018-02-19T21:04:25.110Z,19.37
2018-02-19T21:06:54.140Z,17.55
2018-02-19T21:09:22.409Z,17.40
2018-02-19T21:11:50.680Z,19.12
2018-02-19T21:14:18.941Z,18.40
2018-02-19T21:16:47.976Z,20.08
2018-02-19T21:19:16.225Z,18.92
2018-02-19T21:21:44.502Z,18.48
2018-02-19T21:24:12.758Z,20.55
2018-02-19T21:26:41.792Z,19.75
2018-02-19T21:29:10.079Z,18.90
2018-02-19T21:31:38.339Z,20.50
2018-02-19T21:34:06.594Z,21.33
2018-02-19T21:36:34.873Z,17.37
2018-02-19T21:39:03.138Z,17.73
2018-02-19T21:41:32.161Z,18.02
2018-02-19T21:44:00.434Z,18.92
2018-02-19T21:46:28.719Z,18.75
2018-02-19T21:48:56.970Z,18.05
2018-02-19T21:51:25.228Z,16.98
2018-02-19T21:53:54.264Z,19.00
2018-02-19T21:56:22.515Z,19.35
2018-02-19T21:58:50.790Z,18.05
2018-02-19T22:01:19.055Z,19.75
2018-02-19T22:03:47.327Z,17.52
2018-02-19T22:06:16.365Z,18.50
2018-02-19T22:08:44.637Z,17.87
2018-02-19T22:11:12.903Z,18.92
2018-02-19T22:13:41.167Z,19.77
2018-02-19T22:16:09.426Z,18.55
2018-02-19T22:18:37.697Z,20.40
2018-02-19T22:21:05.954Z,23.02
2018-02-19T22:23:34.994Z,20.00
2018-02-19T22:26:03.261Z,18.48
2018-02-19T22:28:31.527Z,20.48
2018-02-19T22:30:59.786Z,20.45
2018-02-19T22:33:28.818Z,21.75
2018-02-19T22:35:57.080Z,22.95
2018-02-19T22:38:25.356Z,22.20
2018-02-19T22:40:53.618Z,21.42
2018-02-19T22:43:21.878Z,23.20
2018-02-19T22:45:50.913Z,18.65
2018-02-19T22:48:19.177Z,21.45
2018-02-19T22:50:47.491Z,21.55
2018-02-19T22:53:15.750Z,20.58
2018-02-19T22:55:44.017Z,20.35
2018-02-19T22:58:12.281Z,16.62
2018-02-19T23:00:40.551Z,18.55
2018-02-19T23:03:08.813Z,19.15
2018-02-19T23:05:37.087Z,20.05
2018-02-19T23:08:06.112Z,18.60
2018-02-19T23:10:34.515Z,19.65
2018-02-19T23:13:02.844Z,18.62
2018-02-19T23:15:31.949Z,17.15
2018-02-19T23:18:00.275Z,18.58
2018-02-19T23:20:28.677Z,17.80
2018-02-19T23:22:57.787Z,18.33
2018-02-19T23:25:26.198Z,19.40
2018-02-19T23:27:54.583Z,19.95
2018-02-19T23:30:22.951Z,22.02
2018-02-19T23:32:51.284Z,18.27
2018-02-19T23:35:20.366Z,20.40
2018-02-19T23:37:48.687Z,20.50
2018-02-19T23:40:16.991Z,18.65
2018-02-19T23:42:45.326Z,19.65
2018-02-19T23:45:14.385Z,19.70
2018-02-19T23:47:42.677Z,18.75
2018-02-19T23:50:11.735Z,18.60
2018-02-19T23:52:40.050Z,20.98
2018-02-19T23:55:09.140Z,19.95
2018-02-19T23:57:38.238Z,19.83
